Terminal Aerodrome Forecast
Issued by NWS Tampa Bay Area, FL

Home | Current Version | Previous Version | Text Only | Print | Product List | Glossary On
Versions: 1 2 3 4 5 6 7 8 9 10 11 12 13
000
FTUS42 KTBW 212300
TAFSRQ
TAF
KSRQ 212329Z 2200/2224 VRB04KT P6SM BKN150
     FM221000 VRB03KT P6SM VCSH SCT025 BKN035
     FM221500 18005KT P6SM VCSH SCT025 BKN035
     FM221800 24007KT P6SM VCTS BKN035CB=

USA.gov is the U.S. government's official web portal to all federal, state and local government web resources and services.